sensor_id;sensor_type;location;lat;lon;timestamp;pressure;altitude;pressure_sealevel;temperature;humidity
66396;BME280;53207;51.378;-1.342;2023-06-22T00:01:25;100524.44;;;29.80;32.77
66396;BME280;53207;51.378;-1.342;2023-06-22T00:03:54;100519.80;;;30.00;32.75
66396;BME280;53207;51.378;-1.342;2023-06-22T00:06:22;100518.45;;;29.76;32.68
66396;BME280;53207;51.378;-1.342;2023-06-22T00:08:49;100522.81;;;29.75;32.70
66396;BME280;53207;51.378;-1.342;2023-06-22T00:11:17;100522.10;;;29.69;32.70
66396;BME280;53207;51.378;-1.342;2023-06-22T00:13:45;100518.86;;;29.67;32.70
66396;BME280;53207;51.378;-1.342;2023-06-22T00:16:12;100511.52;;;29.95;32.58
66396;BME280;53207;51.378;-1.342;2023-06-22T00:18:39;100510.75;;;29.67;32.44
66396;BME280;53207;51.378;-1.342;2023-06-22T00:21:07;100508.99;;;29.99;32.39
66396;BME280;53207;51.378;-1.342;2023-06-22T00:23:35;100508.76;;;29.70;32.49
66396;BME280;53207;51.378;-1.342;2023-06-22T00:26:02;100505.50;;;29.93;32.48
66396;BME280;53207;51.378;-1.342;2023-06-22T00:28:30;100505.69;;;29.94;32.50
66396;BME280;53207;51.378;-1.342;2023-06-22T00:30:57;100504.40;;;29.93;32.48
66396;BME280;53207;51.378;-1.342;2023-06-22T00:33:25;100506.46;;;29.63;32.53
66396;BME280;53207;51.378;-1.342;2023-06-22T00:35:52;100509.70;;;29.91;32.48
66396;BME280;53207;51.378;-1.342;2023-06-22T00:38:20;100512.34;;;29.64;32.47
66396;BME280;53207;51.378;-1.342;2023-06-22T00:40:47;100517.75;;;29.88;32.49
66396;BME280;53207;51.378;-1.342;2023-06-22T00:43:15;100519.51;;;29.62;32.43
66396;BME280;53207;51.378;-1.342;2023-06-22T00:45:43;100519.87;;;30.10;32.46
66396;BME280;53207;51.378;-1.342;2023-06-22T00:48:12;100519.92;;;29.88;32.42
66396;BME280;53207;51.378;-1.342;2023-06-22T00:50:40;100519.58;;;29.84;32.43
66396;BME280;53207;51.378;-1.342;2023-06-22T00:53:08;100521.75;;;29.55;32.44
66396;BME280;53207;51.378;-1.342;2023-06-22T00:55:36;100520.53;;;29.55;32.44
66396;BME280;53207;51.378;-1.342;2023-06-22T00:58:05;100516.72;;;29.81;32.40
66396;BME280;53207;51.378;-1.342;2023-06-22T01:00:33;100516.83;;;29.79;32.41
66396;BME280;53207;51.378;-1.342;2023-06-22T01:03:02;100514.24;;;29.75;32.44
66396;BME280;53207;51.378;-1.342;2023-06-22T01:05:29;100506.63;;;29.79;32.35
66396;BME280;53207;51.378;-1.342;2023-06-22T01:08:06;100505.38;;;29.51;32.35
66396;BME280;53207;51.378;-1.342;2023-06-22T01:10:41;100505.71;;;29.50;32.32
66396;BME280;53207;51.378;-1.342;2023-06-22T01:13:16;100507.12;;;29.75;32.34
66396;BME280;53207;51.378;-1.342;2023-06-22T01:15:49;100512.42;;;29.75;32.30
66396;BME280;53207;51.378;-1.342;2023-06-22T01:18:19;100514.78;;;29.71;32.35
66396;BME280;53207;51.378;-1.342;2023-06-22T01:20:50;100516.87;;;29.43;32.31
66396;BME280;53207;51.378;-1.342;2023-06-22T01:23:26;100515.92;;;29.44;32.32
66396;BME280;53207;51.378;-1.342;2023-06-22T01:26:01;100510.72;;;29.87;32.35
66396;BME280;53207;51.378;-1.342;2023-06-22T01:28:40;100518.46;;;29.40;32.30
66396;BME280;53207;51.378;-1.342;2023-06-22T01:31:11;100519.20;;;29.65;32.29
66396;BME280;53207;51.378;-1.342;2023-06-22T01:33:42;100517.97;;;29.38;32.31
66396;BME280;53207;51.378;-1.342;2023-06-22T01:36:11;100515.45;;;29.66;32.23
66396;BME280;53207;51.378;-1.342;2023-06-22T01:38:41;100510.93;;;29.58;32.28
66396;BME280;53207;51.378;-1.342;2023-06-22T01:41:09;100512.70;;;29.53;32.31
66396;BME280;53207;51.378;-1.342;2023-06-22T01:43:38;100518.31;;;29.31;32.27
66396;BME280;53207;51.378;-1.342;2023-06-22T01:46:06;100520.79;;;29.75;32.32
66396;BME280;53207;51.378;-1.342;2023-06-22T01:48:34;100520.01;;;29.25;32.27
66396;BME280;53207;51.378;-1.342;2023-06-22T01:51:02;100516.36;;;29.70;32.29
66396;BME280;53207;51.378;-1.342;2023-06-22T01:53:30;100516.67;;;29.53;32.21
66396;BME280;53207;51.378;-1.342;2023-06-22T01:55:57;100517.41;;;29.51;32.22
66396;BME280;53207;51.378;-1.342;2023-06-22T01:58:27;100516.15;;;29.46;32.19
66396;BME280;53207;51.378;-1.342;2023-06-22T02:01:00;100516.45;;;29.44;32.23
66396;BME280;53207;51.378;-1.342;2023-06-22T02:03:37;100519.74;;;29.44;32.20
66396;BME280;53207;51.378;-1.342;2023-06-22T02:06:10;100526.30;;;29.48;32.15
66396;BME280;53207;51.378;-1.342;2023-06-22T02:08:41;100531.34;;;29.45;32.13
66396;BME280;53207;51.378;-1.342;2023-06-22T02:11:15;100527.60;;;29.41;32.17
66396;BME280;53207;51.378;-1.342;2023-06-22T02:13:44;100524.35;;;29.37;32.20
66396;BME280;53207;51.378;-1.342;2023-06-22T02:16:13;100521.53;;;29.41;32.12
66396;BME280;53207;51.378;-1.342;2023-06-22T02:18:46;100520.09;;;29.57;32.18
66396;BME280;53207;51.378;-1.342;2023-06-22T02:21:14;100519.68;;;29.56;32.12
66396;BME280;53207;51.378;-1.342;2023-06-22T02:23:41;100519.89;;;29.54;32.10
66396;BME280;53207;51.378;-1.342;2023-06-22T02:26:09;100522.59;;;29.30;32.14
66396;BME280;53207;51.378;-1.342;2023-06-22T02:28:36;100524.57;;;29.28;32.11
66396;BME280;53207;51.378;-1.342;2023-06-22T02:31:04;100520.40;;;28.99;32.13
66396;BME280;53207;51.378;-1.342;2023-06-22T02:33:31;100519.35;;;29.27;32.07
66396;BME280;53207;51.378;-1.342;2023-06-22T02:35:59;100524.09;;;29.21;32.13
66396;BME280;53207;51.378;-1.342;2023-06-22T02:38:27;100524.54;;;29.20;32.13
66396;BME280;53207;51.378;-1.342;2023-06-22T02:40:54;100529.10;;;29.17;32.13
66396;BME280;53207;51.378;-1.342;2023-06-22T02:43:22;100528.70;;;29.39;32.11
66396;BME280;53207;51.378;-1.342;2023-06-22T02:45:49;100529.10;;;29.38;32.08
66396;BME280;53207;51.378;-1.342;2023-06-22T02:48:17;100531.68;;;29.15;32.07
66396;BME280;53207;51.378;-1.342;2023-06-22T02:50:45;100529.26;;;29.31;32.12
66396;BME280;53207;51.378;-1.342;2023-06-22T02:53:12;100528.14;;;29.06;32.10
66396;BME280;53207;51.378;-1.342;2023-06-22T02:55:40;100533.83;;;29.29;32.10
66396;BME280;53207;51.378;-1.342;2023-06-22T02:58:08;100536.06;;;29.31;32.02
66396;BME280;53207;51.378;-1.342;2023-06-22T03:00:35;100534.42;;;29.07;32.04
66396;BME280;53207;51.378;-1.342;2023-06-22T03:03:03;100532.59;;;29.24;32.07
66396;BME280;53207;51.378;-1.342;2023-06-22T03:05:30;100524.97;;;29.23;32.05
66396;BME280;53207;51.378;-1.342;2023-06-22T03:07:58;100518.70;;;29.19;32.08
66396;BME280;53207;51.378;-1.342;2023-06-22T03:10:26;100516.42;;;28.97;32.05
66396;BME280;53207;51.378;-1.342;2023-06-22T03:12:54;100517.74;;;28.95;32.05
66396;BME280;53207;51.378;-1.342;2023-06-22T03:15:21;100515.35;;;29.18;32.01
66396;BME280;53207;51.378;-1.342;2023-06-22T03:17:48;100513.45;;;29.16;32.02
66396;BME280;53207;51.378;-1.342;2023-06-22T03:20:16;100508.58;;;29.17;31.97
66396;BME280;53207;51.378;-1.342;2023-06-22T03:22:44;100507.75;;;28.91;31.99
66396;BME280;53207;51.378;-1.342;2023-06-22T03:25:11;100508.51;;;28.86;32.03
66396;BME280;53207;51.378;-1.342;2023-06-22T03:27:39;100510.37;;;29.10;31.99
66396;BME280;53207;51.378;-1.342;2023-06-22T03:30:08;100511.81;;;29.08;31.96
66396;BME280;53207;51.378;-1.342;2023-06-22T03:32:36;100510.85;;;29.06;31.98
66396;BME280;53207;51.378;-1.342;2023-06-22T03:35:05;100507.56;;;29.00;32.02
66396;BME280;53207;51.378;-1.342;2023-06-22T03:37:33;100505.53;;;29.01;31.99
66396;BME280;53207;51.378;-1.342;2023-06-22T03:40:00;100506.43;;;28.78;31.98
66396;BME280;53207;51.378;-1.342;2023-06-22T03:42:28;100504.00;;;29.02;31.93
66396;BME280;53207;51.378;-1.342;2023-06-22T03:44:55;100500.97;;;29.00;31.94
66396;BME280;53207;51.378;-1.342;2023-06-22T03:47:23;100499.22;;;28.97;31.92
66396;BME280;53207;51.378;-1.342;2023-06-22T03:49:51;100496.94;;;28.96;31.92
66396;BME280;53207;51.378;-1.342;2023-06-22T03:52:18;100497.19;;;28.93;31.94
66396;BME280;53207;51.378;-1.342;2023-06-22T03:54:46;100494.32;;;28.75;31.84
66396;BME280;53207;51.378;-1.342;2023-06-22T03:57:14;100491.51;;;28.89;31.91
66396;BME280;53207;51.378;-1.342;2023-06-22T03:59:41;100487.25;;;28.92;31.86
66396;BME280;53207;51.378;-1.342;2023-06-22T04:02:09;100485.28;;;28.90;31.86
66396;BME280;53207;51.378;-1.342;2023-06-22T04:04:37;100486.30;;;28.91;31.84
66396;BME280;53207;51.378;-1.342;2023-06-22T04:07:05;100487.61;;;28.87;31.84
66396;BME280;53207;51.378;-1.342;2023-06-22T04:09:32;100492.10;;;28.79;31.92
66396;BME280;53207;51.378;-1.342;2023-06-22T04:12:01;100497.14;;;28.82;31.83
66396;BME280;53207;51.378;-1.342;2023-06-22T04:14:28;100498.71;;;28.84;31.81
66396;BME280;53207;51.378;-1.342;2023-06-22T04:16:57;100499.77;;;28.77;31.85
66396;BME280;53207;51.378;-1.342;2023-06-22T04:19:24;100502.57;;;28.75;31.85
66396;BME280;53207;51.378;-1.342;2023-06-22T04:21:51;100504.39;;;28.76;31.82
66396;BME280;53207;51.378;-1.342;2023-06-22T04:24:19;100504.73;;;28.74;31.82
66396;BME280;53207;51.378;-1.342;2023-06-22T04:26:47;100504.45;;;28.74;31.80
66396;BME280;53207;51.378;-1.342;2023-06-22T04:29:14;100504.80;;;28.72;31.79
66396;BME280;53207;51.378;-1.342;2023-06-22T04:31:42;100505.52;;;28.75;31.74
66396;BME280;53207;51.378;-1.342;2023-06-22T04:34:10;100506.38;;;28.71;31.72
66396;BME280;53207;51.378;-1.342;2023-06-22T04:36:40;100510.24;;;28.68;31.76
66396;BME280;53207;51.378;-1.342;2023-06-22T04:39:08;100505.85;;;28.63;31.78
66396;BME280;53207;51.378;-1.342;2023-06-22T04:41:36;100504.61;;;28.87;31.78
66396;BME280;53207;51.378;-1.342;2023-06-22T04:44:04;100502.24;;;28.66;31.66
66396;BME280;53207;51.378;-1.342;2023-06-22T04:46:31;100503.88;;;28.64;31.69
66396;BME280;53207;51.378;-1.342;2023-06-22T04:48:59;100502.83;;;28.57;31.76
66396;BME280;53207;51.378;-1.342;2023-06-22T04:51:26;100504.74;;;28.54;31.80
66396;BME280;53207;51.378;-1.342;2023-06-22T04:53:54;100507.93;;;28.53;31.82
66396;BME280;53207;51.378;-1.342;2023-06-22T04:56:22;100509.65;;;28.57;31.72
66396;BME280;53207;51.378;-1.342;2023-06-22T04:58:49;100514.10;;;28.56;31.75
66396;BME280;53207;51.378;-1.342;2023-06-22T05:01:17;100517.62;;;28.56;31.76
66396;BME280;53207;51.378;-1.342;2023-06-22T05:03:45;100515.55;;;28.58;31.72
66396;BME280;53207;51.378;-1.342;2023-06-22T05:06:12;100512.36;;;28.53;31.78
66396;BME280;53207;51.378;-1.342;2023-06-22T05:08:40;100513.76;;;29.03;31.78
66396;BME280;53207;51.378;-1.342;2023-06-22T05:11:08;100513.39;;;28.49;31.83
66396;BME280;53207;51.378;-1.342;2023-06-22T05:13:35;100514.11;;;28.54;31.73
66396;BME280;53207;51.378;-1.342;2023-06-22T05:16:03;100515.85;;;28.51;31.76
66396;BME280;53207;51.378;-1.342;2023-06-22T05:18:31;100513.35;;;28.76;31.75
66396;BME280;53207;51.378;-1.342;2023-06-22T05:20:59;100516.19;;;28.45;31.78
66396;BME280;53207;51.378;-1.342;2023-06-22T05:23:26;100516.37;;;28.44;31.78
66396;BME280;53207;51.378;-1.342;2023-06-22T05:25:54;100518.75;;;28.41;31.82
66396;BME280;53207;51.378;-1.342;2023-06-22T05:28:21;100517.73;;;28.39;31.83
66396;BME280;53207;51.378;-1.342;2023-06-22T05:30:49;100517.72;;;28.39;31.79
66396;BME280;53207;51.378;-1.342;2023-06-22T05:33:16;100523.55;;;28.38;31.80
66396;BME280;53207;51.378;-1.342;2023-06-22T05:35:44;100527.89;;;28.42;31.76
66396;BME280;53207;51.378;-1.342;2023-06-22T05:38:12;100532.40;;;28.33;31.85
66396;BME280;53207;51.378;-1.342;2023-06-22T05:40:39;100537.84;;;28.28;31.86
66396;BME280;53207;51.378;-1.342;2023-06-22T05:43:07;100540.54;;;28.32;31.78
66396;BME280;53207;51.378;-1.342;2023-06-22T05:45:35;100542.71;;;28.76;31.82
66396;BME280;53207;51.378;-1.342;2023-06-22T05:48:03;100544.55;;;28.26;31.83
66396;BME280;53207;51.378;-1.342;2023-06-22T05:50:30;100550.17;;;28.50;31.82
66396;BME280;53207;51.378;-1.342;2023-06-22T05:52:58;100548.21;;;28.52;31.80
66396;BME280;53207;51.378;-1.342;2023-06-22T05:55:25;100547.42;;;28.19;31.84
66396;BME280;53207;51.378;-1.342;2023-06-22T05:57:53;100546.16;;;28.52;31.79
66396;BME280;53207;51.378;-1.342;2023-06-22T06:00:21;100545.69;;;28.50;31.81
66396;BME280;53207;51.378;-1.342;2023-06-22T06:02:48;100547.09;;;28.21;31.87
66396;BME280;53207;51.378;-1.342;2023-06-22T06:05:16;100548.13;;;28.22;31.87
66396;BME280;53207;51.378;-1.342;2023-06-22T06:07:45;100549.69;;;28.19;32.00
66396;BME280;53207;51.378;-1.342;2023-06-22T06:10:12;100549.69;;;28.22;31.93
66396;BME280;53207;51.378;-1.342;2023-06-22T06:12:40;100552.29;;;28.69;32.03
66396;BME280;53207;51.378;-1.342;2023-06-22T06:15:08;100554.49;;;28.52;31.98
66396;BME280;53207;51.378;-1.342;2023-06-22T06:17:35;100558.07;;;28.23;32.05
66396;BME280;53207;51.378;-1.342;2023-06-22T06:20:04;100552.19;;;28.23;32.13
66396;BME280;53207;51.378;-1.342;2023-06-22T06:22:32;100540.43;;;28.24;32.09
66396;BME280;53207;51.378;-1.342;2023-06-22T06:24:59;100534.79;;;28.49;32.14
66396;BME280;53207;51.378;-1.342;2023-06-22T06:27:27;100534.14;;;28.23;32.13
66396;BME280;53207;51.378;-1.342;2023-06-22T06:29:55;100539.96;;;28.24;32.10
66396;BME280;53207;51.378;-1.342;2023-06-22T06:32:22;100543.40;;;28.51;32.10
66396;BME280;53207;51.378;-1.342;2023-06-22T06:34:50;100539.91;;;28.23;32.12
66396;BME280;53207;51.378;-1.342;2023-06-22T06:37:18;100534.82;;;28.21;32.46
66396;BME280;53207;51.378;-1.342;2023-06-22T06:39:45;100529.75;;;28.24;32.32
66396;BME280;53207;51.378;-1.342;2023-06-22T06:42:13;100530.10;;;28.55;32.32
66396;BME280;53207;51.378;-1.342;2023-06-22T06:44:41;100530.40;;;28.54;32.35
66396;BME280;53207;51.378;-1.342;2023-06-22T06:47:08;100535.48;;;28.55;32.56
66396;BME280;53207;51.378;-1.342;2023-06-22T06:49:36;100536.31;;;28.28;32.52
66396;BME280;53207;51.378;-1.342;2023-06-22T06:52:05;100533.25;;;28.78;32.41
66396;BME280;53207;51.378;-1.342;2023-06-22T06:54:32;100529.65;;;28.30;32.47
66396;BME280;53207;51.378;-1.342;2023-06-22T06:57:00;100528.99;;;28.33;32.64
66396;BME280;53207;51.378;-1.342;2023-06-22T06:59:28;100527.59;;;28.62;32.56
66396;BME280;53207;51.378;-1.342;2023-06-22T07:01:55;100528.10;;;28.36;32.49
66396;BME280;53207;51.378;-1.342;2023-06-22T07:04:23;100530.83;;;28.37;32.43
66396;BME280;53207;51.378;-1.342;2023-06-22T07:06:51;100527.74;;;28.39;32.49
66396;BME280;53207;51.378;-1.342;2023-06-22T07:09:18;100524.99;;;28.88;32.49
66396;BME280;53207;51.378;-1.342;2023-06-22T07:11:46;100521.56;;;28.40;32.46
66396;BME280;53207;51.378;-1.342;2023-06-22T07:14:14;100527.36;;;28.42;32.43
66396;BME280;53207;51.378;-1.342;2023-06-22T07:16:41;100532.65;;;28.47;32.45
66396;BME280;53207;51.378;-1.342;2023-06-22T07:19:11;100537.09;;;28.45;32.37
66396;BME280;53207;51.378;-1.342;2023-06-22T07:21:39;100538.66;;;28.46;32.29
66396;BME280;53207;51.378;-1.342;2023-06-22T07:24:07;100535.86;;;28.50;32.24
66396;BME280;53207;51.378;-1.342;2023-06-22T07:26:34;100535.40;;;28.46;32.38
66396;BME280;53207;51.378;-1.342;2023-06-22T07:29:02;100533.00;;;28.81;32.19
66396;BME280;53207;51.378;-1.342;2023-06-22T07:31:29;100535.00;;;28.52;32.27
66396;BME280;53207;51.378;-1.342;2023-06-22T07:33:57;100533.99;;;28.53;32.27
66396;BME280;53207;51.378;-1.342;2023-06-22T07:36:25;100530.47;;;28.54;32.23
66396;BME280;53207;51.378;-1.342;2023-06-22T07:38:52;100529.28;;;28.53;32.24
66396;BME280;53207;51.378;-1.342;2023-06-22T07:41:20;100532.65;;;28.54;32.18
66396;BME280;53207;51.378;-1.342;2023-06-22T07:43:48;100532.57;;;28.59;32.16
66396;BME280;53207;51.378;-1.342;2023-06-22T07:46:15;100530.70;;;28.59;32.12
66396;BME280;53207;51.378;-1.342;2023-06-22T07:48:43;100528.59;;;28.60;32.07
66396;BME280;53207;51.378;-1.342;2023-06-22T07:51:11;100530.53;;;28.60;32.09
66396;BME280;53207;51.378;-1.342;2023-06-22T07:53:39;100528.64;;;28.62;32.05
66396;BME280;53207;51.378;-1.342;2023-06-22T07:56:08;100527.83;;;28.66;32.01
66396;BME280;53207;51.378;-1.342;2023-06-22T07:58:37;100527.45;;;28.68;32.01
66396;BME280;53207;51.378;-1.342;2023-06-22T08:01:05;100526.06;;;28.66;32.10
66396;BME280;53207;51.378;-1.342;2023-06-22T08:03:32;100525.17;;;28.61;32.08
66396;BME280;53207;51.378;-1.342;2023-06-22T08:06:00;100521.93;;;28.73;31.91
66396;BME280;53207;51.378;-1.342;2023-06-22T08:08:27;100521.99;;;28.72;32.00
66396;BME280;53207;51.378;-1.342;2023-06-22T08:10:55;100523.80;;;28.70;32.06
66396;BME280;53207;51.378;-1.342;2023-06-22T08:13:23;100520.98;;;28.46;32.05
66396;BME280;53207;51.378;-1.342;2023-06-22T08:15:50;100520.32;;;28.65;32.27
66396;BME280;53207;51.378;-1.342;2023-06-22T08:18:18;100518.47;;;28.63;32.22
66396;BME280;53207;51.378;-1.342;2023-06-22T08:20:45;100519.10;;;28.73;31.97
66396;BME280;53207;51.378;-1.342;2023-06-22T08:23:13;100518.28;;;28.73;31.95
66396;BME280;53207;51.378;-1.342;2023-06-22T08:25:41;100518.36;;;28.75;32.06
66396;BME280;53207;51.378;-1.342;2023-06-22T08:28:09;100519.13;;;28.75;32.02
66396;BME280;53207;51.378;-1.342;2023-06-22T08:30:36;100522.28;;;28.70;32.07
66396;BME280;53207;51.378;-1.342;2023-06-22T08:33:04;100520.33;;;28.83;31.95
66396;BME280;53207;51.378;-1.342;2023-06-22T08:35:31;100521.17;;;28.67;32.23
66396;BME280;53207;51.378;-1.342;2023-06-22T08:37:59;100520.33;;;28.78;32.02
66396;BME280;53207;51.378;-1.342;2023-06-22T08:40:27;100518.88;;;28.89;31.87
66396;BME280;53207;51.378;-1.342;2023-06-22T08:42:54;100521.39;;;29.25;31.88
66396;BME280;53207;51.378;-1.342;2023-06-22T08:45:22;100520.82;;;28.95;31.87
66396;BME280;53207;51.378;-1.342;2023-06-22T08:47:50;100524.77;;;29.02;31.81
66396;BME280;53207;51.378;-1.342;2023-06-22T08:50:17;100520.75;;;28.98;31.93
66396;BME280;53207;51.378;-1.342;2023-06-22T08:52:45;100519.72;;;29.05;31.83
66396;BME280;53207;51.378;-1.342;2023-06-22T08:55:13;100515.63;;;28.84;31.92
66396;BME280;53207;51.378;-1.342;2023-06-22T08:57:40;100518.29;;;28.94;31.81
66396;BME280;53207;51.378;-1.342;2023-06-22T09:00:09;100520.20;;;29.21;31.79
66396;BME280;53207;51.378;-1.342;2023-06-22T09:02:37;100522.05;;;29.21;31.83
66396;BME280;53207;51.378;-1.342;2023-06-22T09:05:05;100518.80;;;29.25;31.84
66396;BME280;53207;51.378;-1.342;2023-06-22T09:07:32;100521.72;;;29.20;31.91
66396;BME280;53207;51.378;-1.342;2023-06-22T09:10:00;100523.87;;;29.07;31.79
66396;BME280;53207;51.378;-1.342;2023-06-22T09:12:27;100525.42;;;29.26;31.86
66396;BME280;53207;51.378;-1.342;2023-06-22T09:14:55;100527.46;;;28.95;31.85
66396;BME280;53207;51.378;-1.342;2023-06-22T09:17:22;100527.58;;;28.93;31.94
66396;BME280;53207;51.378;-1.342;2023-06-22T09:19:50;100527.03;;;29.17;31.88
66396;BME280;53207;51.378;-1.342;2023-06-22T09:22:18;100530.85;;;28.98;31.80
66396;BME280;53207;51.378;-1.342;2023-06-22T09:24:45;100535.05;;;29.19;31.86
66396;BME280;53207;51.378;-1.342;2023-06-22T09:27:13;100537.71;;;29.19;31.81
66396;BME280;53207;51.378;-1.342;2023-06-22T09:29:40;100536.74;;;29.31;31.70
66396;BME280;53207;51.378;-1.342;2023-06-22T09:32:08;100532.05;;;29.26;31.82
66396;BME280;53207;51.378;-1.342;2023-06-22T09:34:36;100528.82;;;29.20;31.86
66396;BME280;53207;51.378;-1.342;2023-06-22T09:37:04;100531.75;;;29.23;31.83
66396;BME280;53207;51.378;-1.342;2023-06-22T09:39:31;100533.54;;;29.18;31.84
66396;BME280;53207;51.378;-1.342;2023-06-22T09:41:59;100535.08;;;29.35;31.74
66396;BME280;53207;51.378;-1.342;2023-06-22T09:44:27;100536.02;;;29.36;31.65
66396;BME280;53207;51.378;-1.342;2023-06-22T09:46:55;100539.15;;;29.19;31.59
66396;BME280;53207;51.378;-1.342;2023-06-22T09:49:22;100542.03;;;29.38;31.64
66396;BME280;53207;51.378;-1.342;2023-06-22T09:51:50;100546.18;;;29.29;31.78
66396;BME280;53207;51.378;-1.342;2023-06-22T09:54:17;100543.53;;;29.14;31.69
66396;BME280;53207;51.378;-1.342;2023-06-22T09:56:45;100545.20;;;29.13;31.68
66396;BME280;53207;51.378;-1.342;2023-06-22T09:59:13;100543.66;;;29.37;31.63
66396;BME280;53207;51.378;-1.342;2023-06-22T10:01:40;100544.75;;;29.06;31.68
66396;BME280;53207;51.378;-1.342;2023-06-22T10:04:08;100545.53;;;29.42;31.53
66396;BME280;53207;51.378;-1.342;2023-06-22T10:06:35;100542.14;;;29.21;31.49
66396;BME280;53207;51.378;-1.342;2023-06-22T10:09:03;100544.87;;;29.39;31.56
66396;BME280;53207;51.378;-1.342;2023-06-22T10:11:31;100543.00;;;29.23;31.52
66396;BME280;53207;51.378;-1.342;2023-06-22T10:13:58;100540.91;;;29.43;31.56
66396;BME280;53207;51.378;-1.342;2023-06-22T10:16:31;100541.80;;;29.51;31.49
66396;BME280;53207;51.378;-1.342;2023-06-22T10:18:59;100539.29;;;29.55;31.46
66396;BME280;53207;51.378;-1.342;2023-06-22T10:21:26;100541.08;;;29.36;31.41
66396;BME280;53207;51.378;-1.342;2023-06-22T10:23:54;100539.50;;;29.62;31.33
66396;BME280;53207;51.378;-1.342;2023-06-22T10:26:21;100544.09;;;29.57;31.34
66396;BME280;53207;51.378;-1.342;2023-06-22T10:28:50;100547.34;;;29.57;31.34
66396;BME280;53207;51.378;-1.342;2023-06-22T10:31:17;100545.47;;;29.62;31.29
66396;BME280;53207;51.378;-1.342;2023-06-22T10:33:45;100545.04;;;29.65;31.25
66396;BME280;53207;51.378;-1.342;2023-06-22T10:36:13;100546.85;;;29.18;31.20
66396;BME280;53207;51.378;-1.342;2023-06-22T10:38:40;100548.30;;;29.49;31.16
66396;BME280;53207;51.378;-1.342;2023-06-22T10:41:08;100550.45;;;29.68;31.15
66396;BME280;53207;51.378;-1.342;2023-06-22T10:43:35;100555.36;;;29.24;31.09
66396;BME280;53207;51.378;-1.342;2023-06-22T10:46:03;100553.75;;;29.72;31.06
66396;BME280;53207;51.378;-1.342;2023-06-22T10:48:31;100549.63;;;29.53;31.03
66396;BME280;53207;51.378;-1.342;2023-06-22T10:50:58;100546.00;;;29.29;30.94
66396;BME280;53207;51.378;-1.342;2023-06-22T10:53:26;100543.04;;;29.77;30.91
66396;BME280;53207;51.378;-1.342;2023-06-22T10:55:53;100544.08;;;29.60;30.85
66396;BME280;53207;51.378;-1.342;2023-06-22T10:58:21;100544.14;;;29.59;30.87
66396;BME280;53207;51.378;-1.342;2023-06-22T11:00:48;100545.63;;;29.84;30.83
66396;BME280;53207;51.378;-1.342;2023-06-22T11:03:16;100546.27;;;29.36;30.79
66396;BME280;53207;51.378;-1.342;2023-06-22T11:05:43;100548.97;;;29.35;30.77
66396;BME280;53207;51.378;-1.342;2023-06-22T11:08:11;100543.43;;;29.60;30.76
66396;BME280;53207;51.378;-1.342;2023-06-22T11:10:39;100548.25;;;29.54;30.70
66396;BME280;53207;51.378;-1.342;2023-06-22T11:13:06;100549.45;;;29.14;30.85
66396;BME280;53207;51.378;-1.342;2023-06-22T11:15:34;100551.96;;;29.42;30.88
66396;BME280;53207;51.378;-1.342;2023-06-22T11:18:01;100554.76;;;29.70;30.85
66396;BME280;53207;51.378;-1.342;2023-06-22T11:20:29;100552.61;;;29.26;30.81
66396;BME280;53207;51.378;-1.342;2023-06-22T11:22:56;100552.72;;;29.77;30.78
66396;BME280;53207;51.378;-1.342;2023-06-22T11:25:24;100555.37;;;29.21;30.69
66396;BME280;53207;51.378;-1.342;2023-06-22T11:27:52;100552.47;;;29.59;30.65
66396;BME280;53207;51.378;-1.342;2023-06-22T11:30:19;100553.90;;;29.57;30.64
66396;BME280;53207;51.378;-1.342;2023-06-22T11:32:47;100553.43;;;29.75;30.71
66396;BME280;53207;51.378;-1.342;2023-06-22T11:35:14;100550.60;;;29.54;30.70
66396;BME280;53207;51.378;-1.342;2023-06-22T11:37:42;100548.38;;;29.80;30.60
66396;BME280;53207;51.378;-1.342;2023-06-22T11:40:10;100549.31;;;29.59;30.65
66396;BME280;53207;51.378;-1.342;2023-06-22T11:42:38;100547.63;;;29.41;30.62
66396;BME280;53207;51.378;-1.342;2023-06-22T11:45:07;100546.77;;;29.41;30.65
66396;BME280;53207;51.378;-1.342;2023-06-22T11:47:34;100546.04;;;29.40;30.50
66396;BME280;53207;51.378;-1.342;2023-06-22T11:50:02;100545.54;;;29.45;30.56
66396;BME280;53207;51.378;-1.342;2023-06-22T11:52:31;100546.87;;;29.76;30.52
66396;BME280;53207;51.378;-1.342;2023-06-22T11:54:59;100546.72;;;29.77;30.51
66396;BME280;53207;51.378;-1.342;2023-06-22T11:57:26;100549.71;;;29.48;30.49
66396;BME280;53207;51.378;-1.342;2023-06-22T11:59:54;100548.10;;;29.42;30.51
66396;BME280;53207;51.378;-1.342;2023-06-22T12:02:22;100543.48;;;29.37;30.58
66396;BME280;53207;51.378;-1.342;2023-06-22T12:04:49;100541.02;;;29.72;30.51
66396;BME280;53207;51.378;-1.342;2023-06-22T12:07:17;100536.96;;;29.63;30.28
66396;BME280;53207;51.378;-1.342;2023-06-22T12:09:44;100532.21;;;29.46;29.98
66396;BME280;53207;51.378;-1.342;2023-06-22T12:12:12;100532.66;;;29.72;30.25
66396;BME280;53207;51.378;-1.342;2023-06-22T12:14:39;100528.59;;;29.76;30.29
66396;BME280;53207;51.378;-1.342;2023-06-22T12:17:07;100532.86;;;29.49;30.24
66396;BME280;53207;51.378;-1.342;2023-06-22T12:19:35;100531.28;;;29.54;30.17
66396;BME280;53207;51.378;-1.342;2023-06-22T12:22:03;100526.44;;;29.78;30.24
66396;BME280;53207;51.378;-1.342;2023-06-22T12:24:30;100522.45;;;29.53;30.23
66396;BME280;53207;51.378;-1.342;2023-06-22T12:26:57;100520.05;;;29.53;30.26
66396;BME280;53207;51.378;-1.342;2023-06-22T12:29:25;100514.24;;;29.79;30.17
66396;BME280;53207;51.378;-1.342;2023-06-22T12:31:52;100517.41;;;30.03;30.19
66396;BME280;53207;51.378;-1.342;2023-06-22T12:34:20;100521.18;;;29.97;30.29
66396;BME280;53207;51.378;-1.342;2023-06-22T12:36:48;100517.17;;;29.55;30.26
66396;BME280;53207;51.378;-1.342;2023-06-22T12:39:15;100510.57;;;29.51;30.15
66396;BME280;53207;51.378;-1.342;2023-06-22T12:41:43;100504.45;;;29.53;30.17
66396;BME280;53207;51.378;-1.342;2023-06-22T12:44:10;100502.85;;;29.60;30.14